createdAt,value
2022-11-29T00:12:11.385Z,7
2022-11-29T00:41:12.363Z,7
2022-11-29T01:10:14.405Z,7
2022-11-29T01:39:06.669Z,6
2022-11-29T02:08:00.931Z,6
2022-11-29T02:37:08.635Z,6
2022-11-29T03:05:45.202Z,6
2022-11-29T03:34:46.338Z,4
2022-11-29T04:03:21.578Z,5
2022-11-29T04:32:24.584Z,4
2022-11-29T05:01:27.532Z,4
2022-11-29T05:30:25.011Z,4
2022-11-29T05:59:19.802Z,4
2022-11-29T06:28:16.232Z,4
2022-11-29T06:57:07.183Z,4
2022-11-29T07:25:51.818Z,4
2022-11-29T07:54:37.646Z,4
2022-11-29T08:23:31.297Z,4
2022-11-29T08:52:27.432Z,4
2022-11-29T09:20:55.662Z,4
2022-11-29T09:49:44.255Z,4
2022-11-29T10:18:41.483Z,4
2022-11-29T10:47:40.477Z,4
2022-11-29T11:16:35.713Z,4
2022-11-29T11:45:00.439Z,5
2022-11-29T12:13:33.849Z,4
2022-11-29T12:42:17.940Z,4
2022-11-29T13:11:01.192Z,6
2022-11-29T13:39:44.700Z,6
2022-11-29T14:08:25.660Z,6
2022-11-29T14:37:14.470Z,5
2022-11-29T15:06:05.612Z,5
2022-11-29T15:34:49.882Z,6
2022-11-29T16:03:39.108Z,6
2022-11-29T16:32:31.424Z,6
2022-11-29T17:01:08.387Z,6
2022-11-29T17:29:52.580Z,25
2022-11-29T17:58:43.052Z,38
2022-11-29T18:27:18.094Z,38
2022-11-29T18:56:00.178Z,41
2022-11-29T19:24:42.061Z,39
2022-11-29T19:53:23.052Z,38
2022-11-29T20:22:04.032Z,35
2022-11-29T20:50:54.300Z,36
2022-11-29T21:19:39.038Z,35
2022-11-29T21:48:13.008Z,33
2022-11-29T22:16:52.988Z,33
2022-11-29T22:45:33.141Z,30
2022-11-29T23:14:19.183Z,30
2022-11-29T23:43:05.306Z,28
